Portada
METAR-TAF:

METAR-TAF

Aeroports :

Epinal, França

latitud: 48-19-31N, longitud: 6-04-00E, altitud: 330 m

Observació

L'informe es va fer fa 43 minuts, a les 23:30 UTC
Vent 8 kt del Oest
Temperatura 2°C
Humitat 80%
Pressió 1015 hPa
Visibilitat 10 km o més
Escasses núvols a una alçada de 2300 ft
Núvols disperses a una alçada de 2900 ft
Cel ennuvolat a una alçada de 5400 ft

METAR: LFSG 272330Z AUTO 27008KT 9999 FEW023 SCT029 BKN054 02/M01 Q1015

Hora: 01:13 (00:13 UTC)


TAF: manca

Observacions i pronòstics meteorològics de més de 4000 aeroports (METAR i TAF).

Les estacions disponibles són els punts grocs i vermells al mapa.

Posi el ratolí al punt desitjat per veure el nom de l'estació.

Feu clic per veure les observacions i els pronòstics meteorològics.

Per canviar el mapa: feu clic els botons verds amb una creu de color negre per apropar; al botó verd amb un guió per allunyar la imatge; o en les fletxes verdes per a mapes adjacents.


METAR-TAF: